createdAt,value
2022-11-01T00:01:00.447Z,100727.86
2022-11-01T00:03:31.314Z,100728.91
2022-11-01T00:06:02.216Z,100730.31
2022-11-01T00:08:33.267Z,100735.30
2022-11-01T00:11:09.145Z,100735.49
2022-11-01T00:13:39.932Z,100737.55
2022-11-01T00:16:11.289Z,100737.04
2022-11-01T00:18:42.572Z,100736.54
2022-11-01T00:21:14.542Z,100734.80
2022-11-01T00:23:46.370Z,100730.15
2022-11-01T00:26:20.163Z,100724.66
2022-11-01T00:28:51.922Z,100722.27
2022-11-01T00:31:23.464Z,100717.45
2022-11-01T00:33:54.402Z,100715.56
2022-11-01T00:36:25.272Z,100713.16
2022-11-01T00:38:56.190Z,100709.60
2022-11-01T00:41:27.080Z,100711.17
2022-11-01T00:43:57.938Z,100710.19
2022-11-01T00:46:29.271Z,100710.38
2022-11-01T00:49:00.278Z,100709.05
2022-11-01T00:51:31.286Z,100706.15
2022-11-01T00:54:02.403Z,100706.38
2022-11-01T00:56:33.254Z,100702.65
2022-11-01T00:59:04.179Z,100700.11
2022-11-01T01:01:35.198Z,100697.05
2022-11-01T01:04:07.205Z,100697.05
2022-11-01T01:06:37.982Z,100697.77
2022-11-01T01:09:08.773Z,100692.11
2022-11-01T01:11:39.727Z,100684.91
2022-11-01T01:14:10.800Z,100686.64
2022-11-01T01:19:17.362Z,100689.36
2022-11-01T01:21:48.239Z,100685.39
2022-11-01T01:24:19.050Z,100681.95
2022-11-01T01:26:50.335Z,100682.61
2022-11-01T01:29:21.196Z,100681.40
2022-11-01T01:31:52.544Z,100680.34
2022-11-01T01:34:23.603Z,100682.56
2022-11-01T01:36:54.384Z,100677.27
2022-11-01T01:39:25.384Z,100683.09
2022-11-01T01:41:59.401Z,100674.50
2022-11-01T01:45:15.145Z,100673.65
2022-11-01T01:47:49.240Z,100669.39
2022-11-01T01:50:24.508Z,100672.13
2022-11-01T01:53:00.540Z,100668.69
2022-11-01T01:55:36.620Z,100666.47
2022-11-01T01:58:10.448Z,100663.21
2022-11-01T02:00:43.222Z,100662.04
2022-11-01T02:03:15.560Z,100666.66
2022-11-01T02:05:51.856Z,100668.76
2022-11-01T02:08:28.267Z,100668.08
2022-11-01T02:11:02.017Z,100664.85
2022-11-01T02:13:33.286Z,100667.42
2022-11-01T02:16:20.714Z,100668.61
2022-11-01T02:19:01.583Z,100663.65
2022-11-01T02:22:02.310Z,100659.54
2022-11-01T02:25:10.957Z,100654.05
2022-11-01T02:27:55.605Z,100648.23
2022-11-01T02:30:33.083Z,100651.15
2022-11-01T02:33:14.830Z,100651.14
2022-11-01T02:35:59.383Z,100651.48
2022-11-01T02:38:36.208Z,100647.92
2022-11-01T02:41:13.116Z,100641.07
2022-11-01T02:43:50.391Z,100633.56
2022-11-01T02:46:41.197Z,100622.27
2022-11-01T02:49:16.599Z,100616.28
2022-11-01T02:51:49.612Z,100612.36
2022-11-01T02:54:24.443Z,100610.36
2022-11-01T02:56:55.900Z,100608.32
2022-11-01T02:59:29.364Z,100603.03
2022-11-01T03:02:05.928Z,100600.83
2022-11-01T03:04:37.463Z,100603.78
2022-11-01T03:07:12.846Z,100604.48
2022-11-01T03:09:44.533Z,100602.98
2022-11-01T03:12:25.616Z,100599.21
2022-11-01T03:15:01.495Z,100595.80
2022-11-01T03:17:34.936Z,100593.60
2022-11-01T03:20:10.384Z,100593.95
2022-11-01T03:22:45.253Z,100597.23
2022-11-01T03:25:41.030Z,100599.13
2022-11-01T03:28:16.482Z,100600.52
2022-11-01T03:30:51.353Z,100605.48
2022-11-01T03:33:25.229Z,100609.64
2022-11-01T03:36:02.194Z,100607.60
2022-11-01T03:38:38.495Z,100607.43
2022-11-01T03:41:14.977Z,100611.73
2022-11-01T03:43:47.465Z,100605.25
2022-11-01T03:46:18.742Z,100609.04
2022-11-01T03:48:49.577Z,100608.23
2022-11-01T03:51:20.504Z,100611.15
2022-11-01T03:53:51.292Z,100611.50
2022-11-01T03:56:22.249Z,100608.92
2022-11-01T03:58:53.144Z,100604.30
2022-11-01T04:01:24.070Z,100604.69
2022-11-01T04:03:55.033Z,100602.64
2022-11-01T04:06:25.857Z,100595.44
2022-11-01T04:08:56.800Z,100595.62
2022-11-01T04:11:27.660Z,100587.42
2022-11-01T04:14:18.526Z,100581.61
2022-11-01T04:17:06.849Z,100575.46
2022-11-01T04:19:55.485Z,100573.45
2022-11-01T04:22:26.802Z,100573.46
2022-11-01T04:24:57.661Z,100572.64
2022-11-01T04:27:28.511Z,100570.39
2022-11-01T04:29:59.400Z,100572.77
2022-11-01T04:32:30.190Z,100569.72
2022-11-01T04:35:01.086Z,100570.90
2022-11-01T04:37:32.266Z,100567.16
2022-11-01T04:40:03.131Z,100568.55
2022-11-01T04:42:35.098Z,100567.86
2022-11-01T04:45:07.508Z,100564.62
2022-11-01T04:47:38.386Z,100561.21
2022-11-01T04:50:09.972Z,100560.85
2022-11-01T04:52:40.834Z,100560.67
2022-11-01T04:55:12.109Z,100560.30
2022-11-01T04:57:43.634Z,100560.96
2022-11-01T05:00:16.673Z,100560.60
2022-11-01T05:02:47.551Z,100553.41
2022-11-01T05:05:20.325Z,100550.16
2022-11-01T05:07:51.194Z,100549.65
2022-11-01T05:10:21.977Z,100549.80
2022-11-01T05:12:52.802Z,100550.83
2022-11-01T05:15:23.758Z,100551.52
2022-11-01T05:17:54.641Z,100551.01
2022-11-01T05:20:25.850Z,100548.62
2022-11-01T05:23:01.303Z,100546.56
2022-11-01T05:25:37.019Z,100544.55
2022-11-01T05:28:14.650Z,100542.31
2022-11-01T05:30:45.954Z,100544.20
2022-11-01T05:33:16.815Z,100544.16
2022-11-01T05:35:47.653Z,100546.20
2022-11-01T05:38:18.477Z,100547.21
2022-11-01T05:40:50.618Z,100549.46
2022-11-01T05:43:21.676Z,100547.08
2022-11-01T05:45:52.569Z,100547.61
2022-11-01T05:48:23.387Z,100541.98
2022-11-01T05:50:54.171Z,100536.38
2022-11-01T05:53:25.223Z,100538.80
2022-11-01T05:55:58.788Z,100537.46
2022-11-01T05:58:30.903Z,100544.17
2022-11-01T06:01:03.776Z,100544.56
2022-11-01T06:03:35.156Z,100544.41
2022-11-01T06:06:06.773Z,100545.96
2022-11-01T06:08:37.640Z,100544.80
2022-11-01T06:11:08.835Z,100546.52
2022-11-01T06:13:39.699Z,100552.17
2022-11-01T06:16:11.356Z,100556.80
2022-11-01T06:18:42.293Z,100554.58
2022-11-01T06:21:13.232Z,100555.95
2022-11-01T06:23:47.636Z,100557.14
2022-11-01T06:26:19.437Z,100555.08
2022-11-01T06:28:50.327Z,100550.42
2022-11-01T06:31:22.133Z,100547.17
2022-11-01T06:33:53.052Z,100543.40
2022-11-01T06:36:24.208Z,100546.67
2022-11-01T06:38:55.078Z,100552.65
2022-11-01T06:41:25.962Z,100553.30
2022-11-01T06:43:56.815Z,100551.24
2022-11-01T06:46:28.031Z,100550.19
2022-11-01T06:48:58.997Z,100552.39
2022-11-01T06:51:30.545Z,100549.10
2022-11-01T06:54:01.646Z,100544.80
2022-11-01T06:56:32.533Z,100542.23
2022-11-01T06:59:03.382Z,100539.29
2022-11-01T07:01:34.371Z,100533.44
2022-11-01T07:04:05.502Z,100541.29
2022-11-01T07:06:36.576Z,100544.00
2022-11-01T07:09:07.576Z,100545.54
2022-11-01T07:11:38.840Z,100546.91
2022-11-01T07:14:10.431Z,100547.26
2022-11-01T07:16:41.395Z,100550.86
2022-11-01T07:19:15.179Z,100554.11
2022-11-01T07:21:46.223Z,100552.23
2022-11-01T07:24:17.209Z,100552.58
2022-11-01T07:26:48.078Z,100556.17
2022-11-01T07:29:20.610Z,100555.64
2022-11-01T07:31:51.422Z,100556.67
2022-11-01T07:34:22.266Z,100556.18
2022-11-01T07:36:56.238Z,100557.19
2022-11-01T07:39:27.187Z,100558.02
2022-11-01T07:42:01.560Z,100559.68
2022-11-01T07:44:36.487Z,100559.80
2022-11-01T07:47:08.165Z,100559.61
2022-11-01T07:49:54.794Z,100558.54
2022-11-01T07:52:26.733Z,100556.44
2022-11-01T07:54:58.107Z,100556.03
2022-11-01T07:57:29.273Z,100547.23
2022-11-01T08:00:05.450Z,100540.67
2022-11-01T08:02:43.424Z,100542.48
2022-11-01T08:05:18.246Z,100540.56
2022-11-01T08:07:49.737Z,100545.98
2022-11-01T08:10:25.011Z,100550.06
2022-11-01T08:13:00.903Z,100550.03
2022-11-01T08:15:32.504Z,100553.94
2022-11-01T08:18:10.046Z,100554.41
2022-11-01T08:20:41.763Z,100552.17
2022-11-01T08:23:13.604Z,100553.66
2022-11-01T08:25:44.858Z,100555.36
2022-11-01T08:28:23.127Z,100556.83
2022-11-01T08:30:54.562Z,100551.80
2022-11-01T08:33:25.681Z,100548.99
2022-11-01T08:35:56.602Z,100544.66
2022-11-01T08:38:27.820Z,100543.36
2022-11-01T08:41:07.720Z,100540.21
2022-11-01T08:43:40.684Z,100539.25
2022-11-01T08:46:16.236Z,100539.13
2022-11-01T08:48:52.329Z,100538.54
2022-11-01T08:51:26.086Z,100541.23
2022-11-01T08:54:25.949Z,100539.70
2022-11-01T08:56:58.354Z,100536.16
2022-11-01T08:59:29.315Z,100529.87
2022-11-01T09:02:14.167Z,100527.31
2022-11-01T09:04:46.013Z,100526.80
2022-11-01T09:07:20.221Z,100527.62
2022-11-01T09:09:51.944Z,100524.29
2022-11-01T09:12:24.770Z,100523.20
2022-11-01T09:14:56.132Z,100524.70
2022-11-01T09:17:27.322Z,100523.29
2022-11-01T09:19:58.592Z,100518.98
2022-11-01T09:22:30.167Z,100518.73
2022-11-01T09:25:01.471Z,100520.75
2022-11-01T09:27:32.464Z,100519.13
2022-11-01T09:30:03.362Z,100513.59
2022-11-01T09:32:34.454Z,100508.41
2022-11-01T09:35:06.172Z,100505.64
2022-11-01T09:37:37.313Z,100502.02
2022-11-01T09:40:10.723Z,100501.09
2022-11-01T09:42:46.120Z,100495.36
2022-11-01T09:45:22.315Z,100495.15
2022-11-01T09:47:57.593Z,100487.89
2022-11-01T09:50:33.740Z,100484.07
2022-11-01T09:53:10.738Z,100485.10
2022-11-01T09:55:49.160Z,100484.61
2022-11-01T09:58:28.335Z,100488.23
2022-11-01T10:01:11.873Z,100489.77
2022-11-01T10:03:55.832Z,100491.23
2022-11-01T10:06:29.280Z,100492.34
2022-11-01T10:09:08.688Z,100487.83
2022-11-01T10:11:59.248Z,100487.59
2022-11-01T10:14:45.482Z,100486.81
2022-11-01T10:17:18.848Z,100486.05
2022-11-01T10:19:51.980Z,100487.52
2022-11-01T10:22:34.461Z,100486.92
2022-11-01T10:25:19.407Z,100484.11
2022-11-01T10:28:00.871Z,100478.13
2022-11-01T10:30:36.681Z,100477.44
2022-11-01T10:33:22.989Z,100476.05
2022-11-01T10:35:57.906Z,100474.03
2022-11-01T10:38:54.159Z,100466.38
2022-11-01T10:41:28.663Z,100470.59
2022-11-01T10:44:04.822Z,100466.20
2022-11-01T10:46:41.032Z,100463.52
2022-11-01T10:49:24.824Z,100461.65
2022-11-01T10:52:00.457Z,100454.45
2022-11-01T10:54:36.493Z,100455.35
2022-11-01T10:57:12.824Z,100451.98
2022-11-01T10:59:47.594Z,100451.38
2022-11-01T11:02:24.039Z,100452.79
2022-11-01T11:04:56.569Z,100444.92
2022-11-01T11:07:30.907Z,100438.92
2022-11-01T11:10:03.193Z,100431.73
2022-11-01T11:12:35.043Z,100430.03
2022-11-01T11:15:18.021Z,100425.30
2022-11-01T11:17:55.499Z,100423.23
2022-11-01T11:20:30.362Z,100422.94
2022-11-01T11:23:04.784Z,100423.10
2022-11-01T11:25:38.657Z,100424.98
2022-11-01T11:28:23.625Z,100426.02
2022-11-01T11:30:55.205Z,100421.73
2022-11-01T11:33:26.404Z,100419.33
2022-11-01T11:36:00.244Z,100416.59
2022-11-01T11:38:46.511Z,100410.06
2022-11-01T11:41:30.032Z,100409.73
2022-11-01T11:44:01.599Z,100416.46
2022-11-01T11:46:32.540Z,100415.96
2022-11-01T11:49:07.232Z,100417.67
2022-11-01T11:51:39.557Z,100416.94
2022-11-01T11:54:26.147Z,100418.11
2022-11-01T11:57:12.392Z,100414.36
2022-11-01T12:02:25.033Z,100410.29
2022-11-01T12:04:59.409Z,100408.98
2022-11-01T12:07:33.262Z,100404.93
2022-11-01T12:10:06.712Z,100397.45
2022-11-01T12:12:42.878Z,100395.75
2022-11-01T12:18:20.052Z,100387.31
2022-11-01T12:20:53.690Z,100383.90
2022-11-01T12:23:32.099Z,100380.11
2022-11-01T12:26:08.576Z,100375.13
2022-11-01T12:28:44.678Z,100380.27
2022-11-01T12:31:19.565Z,100384.23
2022-11-01T12:33:57.536Z,100381.66
2022-11-01T12:36:32.589Z,100382.14
2022-11-01T12:39:13.648Z,100388.11
2022-11-01T12:41:49.020Z,100388.05
2022-11-01T12:44:36.213Z,100389.23
2022-11-01T12:47:14.435Z,100389.54
2022-11-01T12:49:53.201Z,100395.67
2022-11-01T12:52:40.709Z,100390.82
2022-11-01T12:55:21.127Z,100391.66
2022-11-01T12:57:52.329Z,100391.30
2022-11-01T13:00:24.724Z,100390.59
2022-11-01T13:03:07.841Z,100388.62
2022-11-01T13:05:50.369Z,100392.17
2022-11-01T13:08:33.247Z,100399.71
2022-11-01T13:11:15.939Z,100402.48
2022-11-01T13:13:53.666Z,100413.80
2022-11-01T13:16:31.619Z,100413.12
2022-11-01T13:19:20.075Z,100416.01
2022-11-01T13:21:58.339Z,100421.14
2022-11-01T13:24:37.457Z,100417.02
2022-11-01T13:27:16.725Z,100416.00
2022-11-01T13:30:00.774Z,100415.19
2022-11-01T13:32:38.338Z,100419.88
2022-11-01T13:35:40.854Z,100426.65
2022-11-01T13:38:22.201Z,100428.58
2022-11-01T13:41:00.305Z,100431.19
2022-11-01T13:43:38.945Z,100429.00
2022-11-01T13:46:39.229Z,100433.34
2022-11-01T13:49:58.494Z,100435.96
2022-11-01T13:52:33.935Z,100433.77
2022-11-01T13:55:15.232Z,100427.44
2022-11-01T13:57:46.521Z,100426.60
2022-11-01T14:00:38.601Z,100429.38
2022-11-01T14:03:27.740Z,100425.98
2022-11-01T14:06:36.615Z,100424.48
2022-11-01T14:09:43.323Z,100433.80
2022-11-01T14:12:33.859Z,100442.63
2022-11-01T14:15:19.368Z,100447.64
2022-11-01T14:18:03.986Z,100446.30
2022-11-01T14:20:49.609Z,100449.63
2022-11-01T14:23:54.940Z,100452.23
2022-11-01T14:27:02.030Z,100455.16
2022-11-01T14:29:36.804Z,100463.82
2022-11-01T14:32:10.660Z,100470.06
2022-11-01T14:34:45.472Z,100472.66
2022-11-01T14:37:24.686Z,100470.77
2022-11-01T14:40:04.177Z,100472.32
2022-11-01T14:42:43.385Z,100467.15
2022-11-01T14:45:28.820Z,100467.98
2022-11-01T14:48:08.199Z,100474.00
2022-11-01T14:50:47.977Z,100489.57
2022-11-01T14:53:27.926Z,100489.55
2022-11-01T14:56:16.578Z,100491.08
2022-11-01T14:58:48.017Z,100481.13
2022-11-01T15:01:23.629Z,100477.15
2022-11-01T15:04:00.161Z,100479.73
2022-11-01T15:06:32.335Z,100479.23
2022-11-01T15:09:04.870Z,100475.45
2022-11-01T15:11:37.371Z,100480.77
2022-11-01T15:14:10.181Z,100485.25
2022-11-01T15:16:45.086Z,100483.88
2022-11-01T15:19:23.057Z,100487.65
2022-11-01T15:21:54.332Z,100488.33
2022-11-01T15:24:27.390Z,100485.05
2022-11-01T15:27:05.218Z,100483.13
2022-11-01T15:29:37.034Z,100485.35
2022-11-01T15:32:08.075Z,100482.08
2022-11-01T15:34:39.092Z,100478.96
2022-11-01T15:37:24.129Z,100478.27
2022-11-01T15:39:55.251Z,100480.47
2022-11-01T15:42:32.208Z,100476.20
2022-11-01T15:45:23.032Z,100486.34
2022-11-01T15:47:54.300Z,100490.33
2022-11-01T15:50:25.383Z,100484.48
2022-11-01T15:52:58.304Z,100491.69
2022-11-01T15:55:34.441Z,100496.51
2022-11-01T15:58:08.939Z,100499.77
2022-11-01T16:00:43.552Z,100505.98
2022-11-01T16:03:20.554Z,100511.14
2022-11-01T16:05:58.542Z,100508.05
2022-11-01T16:08:36.624Z,100509.56
2022-11-01T16:11:08.647Z,100508.69
2022-11-01T16:13:40.793Z,100501.31
2022-11-01T16:16:12.706Z,100491.86
2022-11-01T16:18:46.398Z,100483.44
2022-11-01T16:21:37.176Z,100490.16
2022-11-01T16:24:15.888Z,100493.10
2022-11-01T16:27:00.184Z,100493.49
2022-11-01T16:29:52.023Z,100494.75
2022-11-01T16:32:27.269Z,100494.95
2022-11-01T16:34:56.911Z,100491.70
2022-11-01T16:37:29.614Z,100479.89
2022-11-01T16:40:20.578Z,100480.75
2022-11-01T16:42:52.456Z,100486.45
2022-11-01T16:45:23.933Z,100496.58
2022-11-01T16:47:58.267Z,100487.02
2022-11-01T16:50:31.582Z,100481.06
2022-11-01T16:53:03.444Z,100483.54
2022-11-01T16:55:36.460Z,100469.88
2022-11-01T16:58:11.532Z,100475.58
2022-11-01T17:00:43.072Z,100467.75
2022-11-01T17:03:15.800Z,100461.28
2022-11-01T17:05:47.215Z,100461.04
2022-11-01T17:08:21.690Z,100467.63
2022-11-01T17:10:53.568Z,100470.27
2022-11-01T17:13:24.829Z,100476.14
2022-11-01T17:15:55.778Z,100485.60
2022-11-01T17:18:30.558Z,100493.30
2022-11-01T17:21:03.526Z,100495.68
2022-11-01T17:23:35.893Z,100490.37
2022-11-01T17:26:09.421Z,100487.80
2022-11-01T17:28:41.528Z,100481.98
2022-11-01T17:31:12.533Z,100481.13
2022-11-01T17:33:45.112Z,100474.27
2022-11-01T17:36:18.678Z,100477.86
2022-11-01T17:38:50.449Z,100475.97
2022-11-01T17:41:21.892Z,100476.67
2022-11-01T17:43:52.917Z,100484.55
2022-11-01T17:46:27.483Z,100483.86
2022-11-01T17:48:58.493Z,100486.43
2022-11-01T17:51:30.164Z,100487.48
2022-11-01T17:54:01.251Z,100485.80
2022-11-01T17:56:32.394Z,100483.05
2022-11-01T17:59:03.835Z,100479.60
2022-11-01T18:01:34.960Z,100484.41
2022-11-01T18:04:14.116Z,100495.04
2022-11-01T18:06:45.261Z,100493.31
2022-11-01T18:09:24.746Z,100491.08
2022-11-01T18:12:06.659Z,100486.27
2022-11-01T18:14:49.904Z,100488.68
2022-11-01T18:17:36.781Z,100486.63
2022-11-01T18:20:21.691Z,100486.81
2022-11-01T18:23:03.210Z,100484.91
2022-11-01T18:25:49.491Z,100484.87
2022-11-01T18:28:25.441Z,100482.98
2022-11-01T18:30:58.186Z,100484.15
2022-11-01T18:33:38.311Z,100480.88
2022-11-01T18:36:18.980Z,100484.14
2022-11-01T18:38:59.293Z,100490.80
2022-11-01T18:41:30.747Z,100498.72
2022-11-01T18:44:04.669Z,100503.69
2022-11-01T18:46:43.558Z,100498.92
2022-11-01T18:49:15.498Z,100509.23
2022-11-01T18:51:49.541Z,100511.52
2022-11-01T18:54:32.955Z,100509.49
2022-11-01T18:57:18.536Z,100507.64
2022-11-01T18:59:55.817Z,100505.27
2022-11-01T19:02:28.412Z,100503.23
2022-11-01T19:05:15.413Z,100505.13
2022-11-01T19:08:20.869Z,100506.55
2022-11-01T19:10:44.799Z,100505.75
2022-11-01T19:13:24.452Z,100507.68
2022-11-01T19:15:58.066Z,100507.38
2022-11-01T19:18:29.949Z,100503.28
2022-11-01T19:21:03.678Z,100508.80
2022-11-01T19:23:38.408Z,100508.00
2022-11-01T19:26:19.594Z,100508.38
2022-11-01T19:28:52.614Z,100503.59
2022-11-01T19:31:34.542Z,100505.84
2022-11-01T19:34:18.855Z,100508.94
2022-11-01T19:36:53.256Z,100508.76
2022-11-01T19:39:28.014Z,100509.45
2022-11-01T19:42:02.409Z,100508.76
2022-11-01T19:44:52.964Z,100509.28
2022-11-01T19:47:39.208Z,100508.77
2022-11-01T19:50:23.612Z,100508.75
2022-11-01T19:53:00.204Z,100509.63
2022-11-01T19:55:51.097Z,100512.71
2022-11-01T19:58:28.679Z,100511.67
2022-11-01T20:01:31.570Z,100510.65
2022-11-01T20:04:05.734Z,100513.55
2022-11-01T20:06:46.754Z,100510.48
2022-11-01T20:09:22.890Z,100507.39
2022-11-01T20:11:54.716Z,100512.02
2022-11-01T20:14:26.207Z,100508.59
2022-11-01T20:16:57.279Z,100505.67
2022-11-01T20:19:28.841Z,100506.19
2022-11-01T20:22:00.252Z,100506.03
2022-11-01T20:24:31.849Z,100504.98
2022-11-01T20:27:03.922Z,100504.48
2022-11-01T20:29:35.563Z,100507.22
2022-11-01T20:32:07.503Z,100504.81
2022-11-01T20:34:38.739Z,100504.83
2022-11-01T20:37:27.493Z,100503.63
2022-11-01T20:40:01.310Z,100507.22
2022-11-01T20:42:32.631Z,100509.11
2022-11-01T20:45:03.500Z,100510.83
2022-11-01T20:47:34.530Z,100506.55
2022-11-01T20:50:08.261Z,100507.75
2022-11-01T20:52:40.197Z,100510.48
2022-11-01T20:55:14.083Z,100511.00
2022-11-01T20:57:45.255Z,100504.14
2022-11-01T21:00:19.708Z,100503.64
2022-11-01T21:02:50.717Z,100506.75
2022-11-01T21:05:28.217Z,100504.52
2022-11-01T21:08:09.714Z,100501.11
2022-11-01T21:10:41.888Z,100505.58
2022-11-01T21:13:31.310Z,100504.91
2022-11-01T21:16:04.030Z,100499.27
2022-11-01T21:18:38.059Z,100493.45
2022-11-01T21:21:46.228Z,100498.95
2022-11-01T21:24:39.231Z,100505.80
2022-11-01T21:30:17.657Z,100511.96
2022-11-01T21:32:49.345Z,100511.45
2022-11-01T21:35:41.064Z,100506.48
2022-11-01T21:38:38.732Z,100503.74
2022-11-01T21:41:24.532Z,100507.85
2022-11-01T21:43:57.821Z,100500.67
2022-11-01T21:46:36.709Z,100501.69
2022-11-01T21:49:24.301Z,100500.52
2022-11-01T21:51:56.382Z,100498.98
2022-11-01T21:54:28.048Z,100502.58
2022-11-01T21:56:59.316Z,100504.47
2022-11-01T21:59:30.878Z,100505.33
2022-11-01T22:02:02.887Z,100504.82
2022-11-01T22:04:34.348Z,100505.16
2022-11-01T22:07:07.021Z,100506.86
2022-11-01T22:09:38.614Z,100507.03
2022-11-01T22:12:10.218Z,100509.94
2022-11-01T22:14:41.171Z,100512.00
2022-11-01T22:17:12.198Z,100513.55
2022-11-01T22:19:43.055Z,100510.97
2022-11-01T22:22:13.926Z,100514.74
2022-11-01T22:24:45.054Z,100515.77
2022-11-01T22:27:16.531Z,100512.17
2022-11-01T22:29:47.725Z,100512.19
2022-11-01T22:32:19.130Z,100507.90
2022-11-01T22:34:50.177Z,100515.96
2022-11-01T22:37:21.217Z,100516.46
2022-11-01T22:39:53.168Z,100517.00
2022-11-01T22:42:26.015Z,100516.85
2022-11-01T22:44:57.373Z,100520.29
2022-11-01T22:47:29.930Z,100520.29
2022-11-01T22:50:04.064Z,100515.52
2022-11-01T22:52:38.619Z,100517.60
2022-11-01T22:55:21.957Z,100514.70
2022-11-01T22:57:58.907Z,100521.23
2022-11-01T23:00:36.322Z,100522.98
2022-11-01T23:03:21.516Z,100524.52
2022-11-01T23:05:56.663Z,100525.04
2022-11-01T23:08:30.673Z,100524.39
2022-11-01T23:11:03.345Z,100525.42
2022-11-01T23:13:53.506Z,100524.58
2022-11-01T23:16:27.418Z,100522.86
2022-11-01T23:19:01.959Z,100523.41
2022-11-01T23:21:33.131Z,100521.17
2022-11-01T23:24:04.163Z,100521.87
2022-11-01T23:26:35.021Z,100530.77
2022-11-01T23:29:06.072Z,100530.77
2022-11-01T23:31:36.971Z,100535.58
2022-11-01T23:34:10.439Z,100536.77
2022-11-01T23:36:41.423Z,100537.30
2022-11-01T23:39:15.495Z,100541.26
2022-11-01T23:41:49.427Z,100535.94
2022-11-01T23:44:29.060Z,100539.04
2022-11-01T23:47:03.837Z,100537.15
2022-11-01T23:49:35.859Z,100543.50
2022-11-01T23:52:22.670Z,100537.68
2022-11-01T23:54:53.558Z,100535.30
2022-11-01T23:57:24.750Z,100528.95
2022-11-01T23:59:55.820Z,100534.09
